sensor_id;sensor_type;location;lat;lon;timestamp;P1;durP1;ratioP1;P2;durP2;ratioP2
20411;SDS011;10365;52.578;8.138;2024-03-22T00:00:38;46.05;;;24.10;;
20411;SDS011;10365;52.578;8.138;2024-03-22T00:03:04;36.60;;;22.02;;
20411;SDS011;10365;52.578;8.138;2024-03-22T00:05:29;43.90;;;23.80;;
20411;SDS011;10365;52.578;8.138;2024-03-22T00:07:55;39.20;;;23.42;;
20411;SDS011;10365;52.578;8.138;2024-03-22T00:10:20;41.55;;;24.23;;
20411;SDS011;10365;52.578;8.138;2024-03-22T00:12:45;36.97;;;22.58;;
20411;SDS011;10365;52.578;8.138;2024-03-22T00:15:10;42.53;;;24.45;;
20411;SDS011;10365;52.578;8.138;2024-03-22T00:17:36;40.47;;;24.27;;
20411;SDS011;10365;52.578;8.138;2024-03-22T00:20:01;40.10;;;23.42;;
20411;SDS011;10365;52.578;8.138;2024-03-22T00:22:27;42.97;;;24.20;;
20411;SDS011;10365;52.578;8.138;2024-03-22T00:24:52;42.88;;;24.13;;
20411;SDS011;10365;52.578;8.138;2024-03-22T00:27:17;40.60;;;23.10;;
20411;SDS011;10365;52.578;8.138;2024-03-22T00:29:43;36.55;;;22.48;;
20411;SDS011;10365;52.578;8.138;2024-03-22T00:32:09;43.60;;;24.38;;
20411;SDS011;10365;52.578;8.138;2024-03-22T00:34:34;38.78;;;22.98;;
20411;SDS011;10365;52.578;8.138;2024-03-22T00:36:59;41.60;;;24.27;;
20411;SDS011;10365;52.578;8.138;2024-03-22T00:39:25;39.40;;;23.98;;
20411;SDS011;10365;52.578;8.138;2024-03-22T00:41:50;47.65;;;24.52;;
20411;SDS011;10365;52.578;8.138;2024-03-22T00:44:16;47.35;;;24.15;;
20411;SDS011;10365;52.578;8.138;2024-03-22T00:46:41;41.83;;;24.33;;
20411;SDS011;10365;52.578;8.138;2024-03-22T00:49:06;41.53;;;24.13;;
20411;SDS011;10365;52.578;8.138;2024-03-22T00:51:32;44.08;;;25.73;;
20411;SDS011;10365;52.578;8.138;2024-03-22T00:53:57;41.45;;;23.85;;
20411;SDS011;10365;52.578;8.138;2024-03-22T00:56:22;41.65;;;23.52;;
20411;SDS011;10365;52.578;8.138;2024-03-22T00:58:47;39.03;;;23.58;;
20411;SDS011;10365;52.578;8.138;2024-03-22T01:01:13;42.30;;;24.80;;
20411;SDS011;10365;52.578;8.138;2024-03-22T01:03:38;45.33;;;23.83;;
20411;SDS011;10365;52.578;8.138;2024-03-22T01:06:03;42.15;;;24.67;;
20411;SDS011;10365;52.578;8.138;2024-03-22T01:08:29;45.47;;;25.83;;
20411;SDS011;10365;52.578;8.138;2024-03-22T01:10:54;40.15;;;24.88;;
20411;SDS011;10365;52.578;8.138;2024-03-22T01:13:19;42.70;;;25.73;;
20411;SDS011;10365;52.578;8.138;2024-03-22T01:15:45;43.42;;;24.27;;
20411;SDS011;10365;52.578;8.138;2024-03-22T01:18:11;48.90;;;25.88;;
20411;SDS011;10365;52.578;8.138;2024-03-22T01:20:36;43.88;;;26.08;;
20411;SDS011;10365;52.578;8.138;2024-03-22T01:23:02;45.03;;;26.00;;
20411;SDS011;10365;52.578;8.138;2024-03-22T01:25:28;46.75;;;26.55;;
20411;SDS011;10365;52.578;8.138;2024-03-22T01:27:55;41.67;;;24.85;;
20411;SDS011;10365;52.578;8.138;2024-03-22T01:30:21;47.38;;;27.70;;
20411;SDS011;10365;52.578;8.138;2024-03-22T01:32:47;47.45;;;26.70;;
20411;SDS011;10365;52.578;8.138;2024-03-22T01:35:12;47.50;;;28.20;;
20411;SDS011;10365;52.578;8.138;2024-03-22T01:37:38;50.90;;;27.38;;
20411;SDS011;10365;52.578;8.138;2024-03-22T01:40:03;45.70;;;26.83;;
20411;SDS011;10365;52.578;8.138;2024-03-22T01:42:32;50.00;;;27.52;;
20411;SDS011;10365;52.578;8.138;2024-03-22T01:44:57;51.78;;;28.35;;
20411;SDS011;10365;52.578;8.138;2024-03-22T01:47:22;52.22;;;29.45;;
20411;SDS011;10365;52.578;8.138;2024-03-22T01:49:49;47.28;;;27.65;;
20411;SDS011;10365;52.578;8.138;2024-03-22T01:52:19;53.95;;;29.70;;
20411;SDS011;10365;52.578;8.138;2024-03-22T01:54:44;55.42;;;29.38;;
20411;SDS011;10365;52.578;8.138;2024-03-22T01:57:09;54.42;;;29.38;;
20411;SDS011;10365;52.578;8.138;2024-03-22T01:59:35;53.42;;;30.05;;
20411;SDS011;10365;52.578;8.138;2024-03-22T02:02:00;57.72;;;31.27;;
20411;SDS011;10365;52.578;8.138;2024-03-22T02:04:28;58.80;;;31.65;;
20411;SDS011;10365;52.578;8.138;2024-03-22T02:06:53;56.63;;;29.55;;
20411;SDS011;10365;52.578;8.138;2024-03-22T02:09:18;58.25;;;30.10;;
20411;SDS011;10365;52.578;8.138;2024-03-22T02:11:46;60.55;;;31.63;;
20411;SDS011;10365;52.578;8.138;2024-03-22T02:14:11;57.10;;;31.13;;
20411;SDS011;10365;52.578;8.138;2024-03-22T02:16:36;54.45;;;30.42;;
20411;SDS011;10365;52.578;8.138;2024-03-22T02:19:02;52.88;;;29.73;;
20411;SDS011;10365;52.578;8.138;2024-03-22T02:21:27;58.38;;;31.05;;
20411;SDS011;10365;52.578;8.138;2024-03-22T02:23:52;53.42;;;28.63;;
20411;SDS011;10365;52.578;8.138;2024-03-22T02:26:18;61.00;;;31.63;;
20411;SDS011;10365;52.578;8.138;2024-03-22T02:28:43;56.17;;;30.50;;
20411;SDS011;10365;52.578;8.138;2024-03-22T02:31:08;63.38;;;31.90;;
20411;SDS011;10365;52.578;8.138;2024-03-22T02:33:34;52.33;;;29.38;;
20411;SDS011;10365;52.578;8.138;2024-03-22T02:35:59;62.35;;;33.67;;
20411;SDS011;10365;52.578;8.138;2024-03-22T02:38:24;58.42;;;32.13;;
20411;SDS011;10365;52.578;8.138;2024-03-22T02:40:51;55.10;;;31.25;;
20411;SDS011;10365;52.578;8.138;2024-03-22T02:43:17;58.20;;;31.77;;
20411;SDS011;10365;52.578;8.138;2024-03-22T02:45:46;59.03;;;32.03;;
20411;SDS011;10365;52.578;8.138;2024-03-22T02:48:12;62.58;;;31.25;;
20411;SDS011;10365;52.578;8.138;2024-03-22T02:50:37;63.00;;;33.50;;
20411;SDS011;10365;52.578;8.138;2024-03-22T02:53:03;58.83;;;31.30;;
20411;SDS011;10365;52.578;8.138;2024-03-22T02:55:28;59.25;;;30.50;;
20411;SDS011;10365;52.578;8.138;2024-03-22T02:57:55;62.47;;;31.35;;
20411;SDS011;10365;52.578;8.138;2024-03-22T03:00:21;57.92;;;32.70;;
20411;SDS011;10365;52.578;8.138;2024-03-22T03:02:46;61.78;;;31.55;;
20411;SDS011;10365;52.578;8.138;2024-03-22T03:05:11;60.55;;;31.02;;
20411;SDS011;10365;52.578;8.138;2024-03-22T03:07:37;59.22;;;30.83;;
20411;SDS011;10365;52.578;8.138;2024-03-22T03:10:02;62.63;;;30.52;;
20411;SDS011;10365;52.578;8.138;2024-03-22T03:12:27;65.18;;;31.63;;
20411;SDS011;10365;52.578;8.138;2024-03-22T03:14:53;58.60;;;31.05;;
20411;SDS011;10365;52.578;8.138;2024-03-22T03:17:18;58.40;;;31.67;;
20411;SDS011;10365;52.578;8.138;2024-03-22T03:19:44;62.42;;;31.67;;
20411;SDS011;10365;52.578;8.138;2024-03-22T03:22:09;61.47;;;30.48;;
20411;SDS011;10365;52.578;8.138;2024-03-22T03:24:34;65.45;;;33.25;;
20411;SDS011;10365;52.578;8.138;2024-03-22T03:27:00;57.85;;;31.88;;
20411;SDS011;10365;52.578;8.138;2024-03-22T03:29:25;62.40;;;32.03;;
20411;SDS011;10365;52.578;8.138;2024-03-22T03:31:50;66.47;;;32.72;;
20411;SDS011;10365;52.578;8.138;2024-03-22T03:34:16;65.25;;;30.88;;
20411;SDS011;10365;52.578;8.138;2024-03-22T03:36:41;60.63;;;29.73;;
20411;SDS011;10365;52.578;8.138;2024-03-22T03:39:07;60.70;;;30.88;;
20411;SDS011;10365;52.578;8.138;2024-03-22T03:41:32;64.05;;;31.50;;
20411;SDS011;10365;52.578;8.138;2024-03-22T03:43:57;61.63;;;32.40;;
20411;SDS011;10365;52.578;8.138;2024-03-22T03:46:23;61.75;;;31.88;;
20411;SDS011;10365;52.578;8.138;2024-03-22T03:48:48;65.65;;;33.03;;
20411;SDS011;10365;52.578;8.138;2024-03-22T03:51:13;65.32;;;31.88;;
20411;SDS011;10365;52.578;8.138;2024-03-22T03:53:39;63.08;;;32.28;;
20411;SDS011;10365;52.578;8.138;2024-03-22T03:56:04;66.63;;;32.80;;
20411;SDS011;10365;52.578;8.138;2024-03-22T03:58:30;64.97;;;31.98;;
20411;SDS011;10365;52.578;8.138;2024-03-22T04:00:55;65.65;;;31.10;;
20411;SDS011;10365;52.578;8.138;2024-03-22T04:03:20;62.45;;;32.58;;
20411;SDS011;10365;52.578;8.138;2024-03-22T04:05:46;66.97;;;31.85;;
20411;SDS011;10365;52.578;8.138;2024-03-22T04:08:11;65.10;;;31.77;;
20411;SDS011;10365;52.578;8.138;2024-03-22T04:10:36;70.68;;;31.98;;
20411;SDS011;10365;52.578;8.138;2024-03-22T04:13:02;68.28;;;32.38;;
20411;SDS011;10365;52.578;8.138;2024-03-22T04:15:27;66.45;;;32.08;;
20411;SDS011;10365;52.578;8.138;2024-03-22T04:17:54;69.13;;;32.30;;
20411;SDS011;10365;52.578;8.138;2024-03-22T04:20:20;67.03;;;31.40;;
20411;SDS011;10365;52.578;8.138;2024-03-22T04:22:45;66.38;;;31.35;;
20411;SDS011;10365;52.578;8.138;2024-03-22T04:25:10;66.03;;;33.13;;
20411;SDS011;10365;52.578;8.138;2024-03-22T04:27:36;66.78;;;31.80;;
20411;SDS011;10365;52.578;8.138;2024-03-22T04:30:01;68.82;;;32.42;;
20411;SDS011;10365;52.578;8.138;2024-03-22T04:32:27;64.00;;;32.97;;
20411;SDS011;10365;52.578;8.138;2024-03-22T04:34:52;63.25;;;31.48;;
20411;SDS011;10365;52.578;8.138;2024-03-22T04:37:20;69.95;;;32.58;;
20411;SDS011;10365;52.578;8.138;2024-03-22T04:39:46;70.35;;;32.78;;
20411;SDS011;10365;52.578;8.138;2024-03-22T04:42:11;66.90;;;31.08;;
20411;SDS011;10365;52.578;8.138;2024-03-22T04:44:37;64.80;;;29.77;;
20411;SDS011;10365;52.578;8.138;2024-03-22T04:47:02;63.25;;;31.80;;
20411;SDS011;10365;52.578;8.138;2024-03-22T04:49:28;64.95;;;30.85;;
20411;SDS011;10365;52.578;8.138;2024-03-22T04:51:53;65.10;;;31.65;;
20411;SDS011;10365;52.578;8.138;2024-03-22T04:54:18;70.13;;;31.00;;
20411;SDS011;10365;52.578;8.138;2024-03-22T04:56:43;65.13;;;31.10;;
20411;SDS011;10365;52.578;8.138;2024-03-22T04:59:09;67.00;;;32.45;;
20411;SDS011;10365;52.578;8.138;2024-03-22T05:01:34;65.68;;;30.15;;
20411;SDS011;10365;52.578;8.138;2024-03-22T05:04:00;64.38;;;31.40;;
20411;SDS011;10365;52.578;8.138;2024-03-22T05:06:25;65.75;;;29.80;;
20411;SDS011;10365;52.578;8.138;2024-03-22T05:08:51;68.47;;;31.60;;
20411;SDS011;10365;52.578;8.138;2024-03-22T05:11:17;70.28;;;31.73;;
20411;SDS011;10365;52.578;8.138;2024-03-22T05:13:42;76.22;;;32.97;;
20411;SDS011;10365;52.578;8.138;2024-03-22T05:16:08;66.47;;;31.77;;
20411;SDS011;10365;52.578;8.138;2024-03-22T05:18:33;67.97;;;31.33;;
20411;SDS011;10365;52.578;8.138;2024-03-22T05:20:59;78.35;;;32.58;;
20411;SDS011;10365;52.578;8.138;2024-03-22T05:23:24;70.28;;;32.10;;
20411;SDS011;10365;52.578;8.138;2024-03-22T05:25:49;68.90;;;31.10;;
20411;SDS011;10365;52.578;8.138;2024-03-22T05:28:15;62.92;;;30.33;;
20411;SDS011;10365;52.578;8.138;2024-03-22T05:30:40;65.25;;;31.48;;
20411;SDS011;10365;52.578;8.138;2024-03-22T05:33:06;59.55;;;29.92;;
20411;SDS011;10365;52.578;8.138;2024-03-22T05:35:31;71.00;;;29.40;;
20411;SDS011;10365;52.578;8.138;2024-03-22T05:37:56;67.50;;;30.60;;
20411;SDS011;10365;52.578;8.138;2024-03-22T05:40:22;64.18;;;29.58;;
20411;SDS011;10365;52.578;8.138;2024-03-22T05:42:48;62.97;;;30.10;;
20411;SDS011;10365;52.578;8.138;2024-03-22T05:45:13;56.95;;;28.83;;
20411;SDS011;10365;52.578;8.138;2024-03-22T05:47:38;62.08;;;27.05;;
20411;SDS011;10365;52.578;8.138;2024-03-22T05:50:04;61.55;;;28.08;;
20411;SDS011;10365;52.578;8.138;2024-03-22T05:52:32;64.55;;;30.48;;
20411;SDS011;10365;52.578;8.138;2024-03-22T05:54:58;61.92;;;29.45;;
20411;SDS011;10365;52.578;8.138;2024-03-22T05:57:23;67.15;;;30.90;;
20411;SDS011;10365;52.578;8.138;2024-03-22T05:59:48;61.95;;;29.15;;
20411;SDS011;10365;52.578;8.138;2024-03-22T06:02:14;64.13;;;30.65;;
20411;SDS011;10365;52.578;8.138;2024-03-22T06:04:40;63.55;;;30.73;;
20411;SDS011;10365;52.578;8.138;2024-03-22T06:07:06;58.90;;;28.80;;
20411;SDS011;10365;52.578;8.138;2024-03-22T06:09:31;68.13;;;30.73;;
20411;SDS011;10365;52.578;8.138;2024-03-22T06:12:05;64.43;;;30.48;;
20411;SDS011;10365;52.578;8.138;2024-03-22T06:14:30;65.15;;;29.02;;
20411;SDS011;10365;52.578;8.138;2024-03-22T06:16:56;59.13;;;28.15;;
20411;SDS011;10365;52.578;8.138;2024-03-22T06:19:21;63.15;;;29.75;;
20411;SDS011;10365;52.578;8.138;2024-03-22T06:21:46;58.38;;;29.13;;
20411;SDS011;10365;52.578;8.138;2024-03-22T06:24:12;60.33;;;28.80;;
20411;SDS011;10365;52.578;8.138;2024-03-22T06:26:37;61.35;;;30.02;;
20411;SDS011;10365;52.578;8.138;2024-03-22T06:29:03;61.97;;;29.73;;
20411;SDS011;10365;52.578;8.138;2024-03-22T06:31:28;62.00;;;28.02;;
20411;SDS011;10365;52.578;8.138;2024-03-22T06:33:54;58.75;;;29.27;;
20411;SDS011;10365;52.578;8.138;2024-03-22T06:36:19;61.83;;;29.33;;
20411;SDS011;10365;52.578;8.138;2024-03-22T06:38:44;59.40;;;30.13;;
20411;SDS011;10365;52.578;8.138;2024-03-22T06:41:10;58.03;;;28.30;;
20411;SDS011;10365;52.578;8.138;2024-03-22T06:43:36;61.95;;;29.13;;
20411;SDS011;10365;52.578;8.138;2024-03-22T06:46:01;60.50;;;30.40;;
20411;SDS011;10365;52.578;8.138;2024-03-22T06:48:26;59.28;;;29.23;;
20411;SDS011;10365;52.578;8.138;2024-03-22T06:50:52;70.10;;;30.20;;
20411;SDS011;10365;52.578;8.138;2024-03-22T06:53:17;58.17;;;28.95;;
20411;SDS011;10365;52.578;8.138;2024-03-22T06:55:42;57.00;;;29.77;;
20411;SDS011;10365;52.578;8.138;2024-03-22T06:58:08;60.83;;;29.27;;
20411;SDS011;10365;52.578;8.138;2024-03-22T07:00:33;63.22;;;29.85;;
20411;SDS011;10365;52.578;8.138;2024-03-22T07:03:00;67.65;;;30.55;;
20411;SDS011;10365;52.578;8.138;2024-03-22T07:05:27;58.95;;;30.15;;
20411;SDS011;10365;52.578;8.138;2024-03-22T07:07:52;57.42;;;28.02;;
20411;SDS011;10365;52.578;8.138;2024-03-22T07:10:21;59.05;;;29.50;;
20411;SDS011;10365;52.578;8.138;2024-03-22T07:12:47;60.20;;;31.25;;
20411;SDS011;10365;52.578;8.138;2024-03-22T07:15:13;59.45;;;30.25;;
20411;SDS011;10365;52.578;8.138;2024-03-22T07:17:38;59.53;;;30.42;;
20411;SDS011;10365;52.578;8.138;2024-03-22T07:20:03;58.65;;;30.40;;
20411;SDS011;10365;52.578;8.138;2024-03-22T07:22:29;64.47;;;31.67;;
20411;SDS011;10365;52.578;8.138;2024-03-22T07:24:54;64.50;;;32.60;;
20411;SDS011;10365;52.578;8.138;2024-03-22T07:27:20;61.00;;;30.33;;
20411;SDS011;10365;52.578;8.138;2024-03-22T07:29:46;64.45;;;31.50;;
20411;SDS011;10365;52.578;8.138;2024-03-22T07:32:11;65.20;;;31.30;;
20411;SDS011;10365;52.578;8.138;2024-03-22T07:34:36;65.32;;;31.30;;
20411;SDS011;10365;52.578;8.138;2024-03-22T07:37:02;65.60;;;33.13;;
20411;SDS011;10365;52.578;8.138;2024-03-22T07:39:29;68.65;;;32.63;;
20411;SDS011;10365;52.578;8.138;2024-03-22T07:41:54;61.22;;;31.25;;
20411;SDS011;10365;52.578;8.138;2024-03-22T07:44:20;67.47;;;33.13;;
20411;SDS011;10365;52.578;8.138;2024-03-22T07:46:45;70.18;;;34.38;;
20411;SDS011;10365;52.578;8.138;2024-03-22T07:49:14;64.25;;;32.80;;
20411;SDS011;10365;52.578;8.138;2024-03-22T07:51:39;72.03;;;35.30;;
20411;SDS011;10365;52.578;8.138;2024-03-22T07:54:04;66.03;;;34.38;;
20411;SDS011;10365;52.578;8.138;2024-03-22T07:56:30;72.35;;;34.00;;
20411;SDS011;10365;52.578;8.138;2024-03-22T07:58:55;75.45;;;35.92;;
20411;SDS011;10365;52.578;8.138;2024-03-22T08:01:21;78.78;;;35.75;;
20411;SDS011;10365;52.578;8.138;2024-03-22T08:03:46;79.57;;;36.75;;
20411;SDS011;10365;52.578;8.138;2024-03-22T08:06:11;81.72;;;38.08;;
20411;SDS011;10365;52.578;8.138;2024-03-22T08:08:37;79.63;;;37.50;;
20411;SDS011;10365;52.578;8.138;2024-03-22T08:11:02;73.57;;;35.47;;
20411;SDS011;10365;52.578;8.138;2024-03-22T08:13:28;79.90;;;36.25;;
20411;SDS011;10365;52.578;8.138;2024-03-22T08:15:53;76.10;;;37.00;;
20411;SDS011;10365;52.578;8.138;2024-03-22T08:18:19;88.22;;;38.10;;
20411;SDS011;10365;52.578;8.138;2024-03-22T08:20:44;77.50;;;35.78;;
20411;SDS011;10365;52.578;8.138;2024-03-22T08:23:09;84.55;;;38.08;;
20411;SDS011;10365;52.578;8.138;2024-03-22T08:25:35;80.22;;;37.92;;
20411;SDS011;10365;52.578;8.138;2024-03-22T08:28:02;86.57;;;38.38;;
20411;SDS011;10365;52.578;8.138;2024-03-22T08:30:27;84.28;;;38.45;;
20411;SDS011;10365;52.578;8.138;2024-03-22T08:32:53;81.38;;;37.90;;
20411;SDS011;10365;52.578;8.138;2024-03-22T08:35:18;83.82;;;37.85;;
20411;SDS011;10365;52.578;8.138;2024-03-22T08:37:43;81.88;;;37.72;;
20411;SDS011;10365;52.578;8.138;2024-03-22T08:40:09;78.28;;;38.83;;
20411;SDS011;10365;52.578;8.138;2024-03-22T08:42:36;81.68;;;39.42;;
20411;SDS011;10365;52.578;8.138;2024-03-22T08:45:01;79.70;;;38.10;;
20411;SDS011;10365;52.578;8.138;2024-03-22T08:47:26;81.78;;;39.03;;
20411;SDS011;10365;52.578;8.138;2024-03-22T08:49:52;78.07;;;38.22;;
20411;SDS011;10365;52.578;8.138;2024-03-22T08:52:17;83.55;;;37.83;;
20411;SDS011;10365;52.578;8.138;2024-03-22T08:54:43;84.10;;;37.70;;
20411;SDS011;10365;52.578;8.138;2024-03-22T08:57:08;71.68;;;37.08;;
20411;SDS011;10365;52.578;8.138;2024-03-22T08:59:33;72.88;;;36.22;;
20411;SDS011;10365;52.578;8.138;2024-03-22T09:02:00;63.20;;;33.75;;
20411;SDS011;10365;52.578;8.138;2024-03-22T09:04:25;70.20;;;33.95;;
20411;SDS011;10365;52.578;8.138;2024-03-22T09:06:51;64.10;;;34.35;;
20411;SDS011;10365;52.578;8.138;2024-03-22T09:09:16;67.70;;;34.10;;
20411;SDS011;10365;52.578;8.138;2024-03-22T09:11:42;62.13;;;33.42;;
20411;SDS011;10365;52.578;8.138;2024-03-22T09:14:07;62.10;;;33.08;;
20411;SDS011;10365;52.578;8.138;2024-03-22T09:16:32;64.55;;;31.95;;
20411;SDS011;10365;52.578;8.138;2024-03-22T09:18:58;64.93;;;33.55;;
20411;SDS011;10365;52.578;8.138;2024-03-22T09:21:23;62.20;;;31.27;;
20411;SDS011;10365;52.578;8.138;2024-03-22T09:23:50;55.17;;;30.63;;
20411;SDS011;10365;52.578;8.138;2024-03-22T09:26:15;55.03;;;29.80;;
20411;SDS011;10365;52.578;8.138;2024-03-22T09:28:40;53.50;;;29.92;;
20411;SDS011;10365;52.578;8.138;2024-03-22T09:31:07;55.10;;;29.75;;
20411;SDS011;10365;52.578;8.138;2024-03-22T09:33:33;50.60;;;29.00;;
20411;SDS011;10365;52.578;8.138;2024-03-22T09:35:58;56.60;;;29.85;;
20411;SDS011;10365;52.578;8.138;2024-03-22T09:38:24;56.55;;;30.23;;
20411;SDS011;10365;52.578;8.138;2024-03-22T09:40:49;53.92;;;28.08;;
20411;SDS011;10365;52.578;8.138;2024-03-22T09:43:19;48.67;;;28.42;;
20411;SDS011;10365;52.578;8.138;2024-03-22T09:45:45;47.20;;;27.15;;
20411;SDS011;10365;52.578;8.138;2024-03-22T09:48:11;51.15;;;27.67;;
20411;SDS011;10365;52.578;8.138;2024-03-22T09:50:38;49.42;;;27.92;;
20411;SDS011;10365;52.578;8.138;2024-03-22T09:53:03;43.63;;;25.70;;
20411;SDS011;10365;52.578;8.138;2024-03-22T09:55:29;43.15;;;26.58;;
20411;SDS011;10365;52.578;8.138;2024-03-22T09:57:55;46.00;;;25.45;;
20411;SDS011;10365;52.578;8.138;2024-03-22T10:00:20;47.08;;;26.55;;
20411;SDS011;10365;52.578;8.138;2024-03-22T10:02:51;46.60;;;25.23;;
20411;SDS011;10365;52.578;8.138;2024-03-22T10:05:16;48.60;;;26.50;;
20411;SDS011;10365;52.578;8.138;2024-03-22T10:07:43;49.00;;;25.70;;
20411;SDS011;10365;52.578;8.138;2024-03-22T10:10:08;46.50;;;25.15;;
20411;SDS011;10365;52.578;8.138;2024-03-22T10:12:34;47.60;;;25.98;;
20411;SDS011;10365;52.578;8.138;2024-03-22T10:14:59;42.30;;;23.45;;
20411;SDS011;10365;52.578;8.138;2024-03-22T10:17:28;44.65;;;23.92;;
20411;SDS011;10365;52.578;8.138;2024-03-22T10:19:54;40.80;;;23.23;;
20411;SDS011;10365;52.578;8.138;2024-03-22T10:22:19;43.05;;;23.95;;
20411;SDS011;10365;52.578;8.138;2024-03-22T10:24:44;48.35;;;23.75;;
20411;SDS011;10365;52.578;8.138;2024-03-22T10:27:10;39.80;;;22.13;;
20411;SDS011;10365;52.578;8.138;2024-03-22T10:29:35;38.58;;;22.08;;
20411;SDS011;10365;52.578;8.138;2024-03-22T10:32:01;41.70;;;22.70;;
20411;SDS011;10365;52.578;8.138;2024-03-22T10:34:27;40.58;;;23.40;;
20411;SDS011;10365;52.578;8.138;2024-03-22T10:36:57;45.30;;;23.08;;
20411;SDS011;10365;52.578;8.138;2024-03-22T10:39:24;40.92;;;22.38;;
20411;SDS011;10365;52.578;8.138;2024-03-22T10:41:51;42.72;;;22.52;;
20411;SDS011;10365;52.578;8.138;2024-03-22T10:44:16;45.85;;;22.85;;
20411;SDS011;10365;52.578;8.138;2024-03-22T10:46:45;42.42;;;21.98;;
20411;SDS011;10365;52.578;8.138;2024-03-22T10:49:15;46.72;;;22.83;;
20411;SDS011;10365;52.578;8.138;2024-03-22T10:51:40;37.40;;;20.95;;
20411;SDS011;10365;52.578;8.138;2024-03-22T10:54:07;38.25;;;20.85;;
20411;SDS011;10365;52.578;8.138;2024-03-22T10:56:33;44.90;;;22.55;;
20411;SDS011;10365;52.578;8.138;2024-03-22T10:59:02;42.38;;;21.92;;
20411;SDS011;10365;52.578;8.138;2024-03-22T11:01:29;43.95;;;23.23;;
20411;SDS011;10365;52.578;8.138;2024-03-22T11:04:07;40.65;;;22.25;;
20411;SDS011;10365;52.578;8.138;2024-03-22T11:06:36;46.05;;;23.67;;
20411;SDS011;10365;52.578;8.138;2024-03-22T11:09:02;40.70;;;22.48;;
20411;SDS011;10365;52.578;8.138;2024-03-22T11:11:30;40.40;;;21.88;;
20411;SDS011;10365;52.578;8.138;2024-03-22T11:13:56;40.45;;;21.40;;
20411;SDS011;10365;52.578;8.138;2024-03-22T11:16:22;34.95;;;19.92;;
20411;SDS011;10365;52.578;8.138;2024-03-22T11:18:47;34.65;;;18.73;;
20411;SDS011;10365;52.578;8.138;2024-03-22T11:21:14;36.92;;;19.80;;
20411;SDS011;10365;52.578;8.138;2024-03-22T11:23:39;33.55;;;18.60;;
20411;SDS011;10365;52.578;8.138;2024-03-22T11:26:05;31.38;;;17.38;;
20411;SDS011;10365;52.578;8.138;2024-03-22T11:28:31;35.25;;;18.88;;
20411;SDS011;10365;52.578;8.138;2024-03-22T11:30:57;35.05;;;18.95;;
20411;SDS011;10365;52.578;8.138;2024-03-22T11:33:22;35.05;;;19.42;;
20411;SDS011;10365;52.578;8.138;2024-03-22T11:35:48;32.00;;;18.48;;
20411;SDS011;10365;52.578;8.138;2024-03-22T11:38:15;31.90;;;17.92;;
20411;SDS011;10365;52.578;8.138;2024-03-22T11:40:40;31.17;;;17.45;;
20411;SDS011;10365;52.578;8.138;2024-03-22T11:43:06;29.38;;;17.38;;
20411;SDS011;10365;52.578;8.138;2024-03-22T11:45:31;33.22;;;17.17;;
20411;SDS011;10365;52.578;8.138;2024-03-22T11:48:01;30.33;;;16.00;;
20411;SDS011;10365;52.578;8.138;2024-03-22T11:50:26;28.00;;;16.67;;
20411;SDS011;10365;52.578;8.138;2024-03-22T11:52:52;27.20;;;15.65;;
20411;SDS011;10365;52.578;8.138;2024-03-22T11:55:17;27.17;;;15.23;;
20411;SDS011;10365;52.578;8.138;2024-03-22T11:57:47;26.55;;;15.18;;
20411;SDS011;10365;52.578;8.138;2024-03-22T12:00:13;25.50;;;15.32;;
20411;SDS011;10365;52.578;8.138;2024-03-22T12:02:40;24.73;;;14.23;;
20411;SDS011;10365;52.578;8.138;2024-03-22T12:05:06;26.48;;;15.00;;
20411;SDS011;10365;52.578;8.138;2024-03-22T12:07:32;24.67;;;13.35;;
20411;SDS011;10365;52.578;8.138;2024-03-22T12:09:58;24.92;;;14.45;;
20411;SDS011;10365;52.578;8.138;2024-03-22T12:12:23;28.02;;;14.55;;
20411;SDS011;10365;52.578;8.138;2024-03-22T12:14:49;27.13;;;15.43;;
20411;SDS011;10365;52.578;8.138;2024-03-22T12:17:18;24.63;;;15.20;;
20411;SDS011;10365;52.578;8.138;2024-03-22T12:19:44;29.08;;;15.27;;
20411;SDS011;10365;52.578;8.138;2024-03-22T12:22:09;25.10;;;14.70;;
20411;SDS011;10365;52.578;8.138;2024-03-22T12:24:34;25.95;;;13.95;;
20411;SDS011;10365;52.578;8.138;2024-03-22T12:27:00;21.17;;;12.88;;
20411;SDS011;10365;52.578;8.138;2024-03-22T12:29:25;25.10;;;13.30;;
20411;SDS011;10365;52.578;8.138;2024-03-22T12:31:50;21.15;;;12.55;;
20411;SDS011;10365;52.578;8.138;2024-03-22T12:34:16;23.33;;;12.43;;
20411;SDS011;10365;52.578;8.138;2024-03-22T12:36:42;21.92;;;12.32;;
20411;SDS011;10365;52.578;8.138;2024-03-22T12:39:07;22.48;;;12.10;;
20411;SDS011;10365;52.578;8.138;2024-03-22T12:41:33;20.90;;;12.55;;
20411;SDS011;10365;52.578;8.138;2024-03-22T12:43:59;25.20;;;12.45;;
20411;SDS011;10365;52.578;8.138;2024-03-22T12:46:24;24.92;;;12.55;;
20411;SDS011;10365;52.578;8.138;2024-03-22T12:48:50;21.58;;;12.55;;
20411;SDS011;10365;52.578;8.138;2024-03-22T12:51:15;24.80;;;13.30;;
20411;SDS011;10365;52.578;8.138;2024-03-22T12:53:41;24.63;;;11.88;;
20411;SDS011;10365;52.578;8.138;2024-03-22T12:56:06;21.75;;;12.05;;
20411;SDS011;10365;52.578;8.138;2024-03-22T12:58:32;23.00;;;11.43;;
20411;SDS011;10365;52.578;8.138;2024-03-22T13:00:57;20.98;;;11.23;;
20411;SDS011;10365;52.578;8.138;2024-03-22T13:03:23;19.00;;;10.68;;
20411;SDS011;10365;52.578;8.138;2024-03-22T13:05:49;18.10;;;9.80;;
20411;SDS011;10365;52.578;8.138;2024-03-22T13:08:14;18.20;;;10.13;;
20411;SDS011;10365;52.578;8.138;2024-03-22T13:10:39;18.05;;;10.23;;
20411;SDS011;10365;52.578;8.138;2024-03-22T13:13:08;18.95;;;10.27;;
20411;SDS011;10365;52.578;8.138;2024-03-22T13:15:34;16.95;;;9.82;;
20411;SDS011;10365;52.578;8.138;2024-03-22T13:18:00;18.38;;;10.52;;
20411;SDS011;10365;52.578;8.138;2024-03-22T13:20:25;16.90;;;9.52;;
20411;SDS011;10365;52.578;8.138;2024-03-22T13:22:51;15.40;;;9.00;;
20411;SDS011;10365;52.578;8.138;2024-03-22T13:25:16;17.23;;;10.32;;
20411;SDS011;10365;52.578;8.138;2024-03-22T13:27:42;18.45;;;9.70;;
20411;SDS011;10365;52.578;8.138;2024-03-22T13:30:07;19.05;;;9.45;;
20411;SDS011;10365;52.578;8.138;2024-03-22T13:32:39;17.70;;;8.77;;
20411;SDS011;10365;52.578;8.138;2024-03-22T13:35:04;18.10;;;9.77;;
20411;SDS011;10365;52.578;8.138;2024-03-22T13:37:31;17.55;;;9.18;;
20411;SDS011;10365;52.578;8.138;2024-03-22T13:39:56;16.98;;;9.23;;
20411;SDS011;10365;52.578;8.138;2024-03-22T13:42:22;18.50;;;10.00;;
20411;SDS011;10365;52.578;8.138;2024-03-22T13:44:47;16.73;;;9.05;;
20411;SDS011;10365;52.578;8.138;2024-03-22T13:47:12;13.80;;;8.45;;
20411;SDS011;10365;52.578;8.138;2024-03-22T13:49:38;15.40;;;8.32;;
20411;SDS011;10365;52.578;8.138;2024-03-22T13:52:06;18.45;;;7.95;;
20411;SDS011;10365;52.578;8.138;2024-03-22T13:54:32;14.82;;;7.30;;
20411;SDS011;10365;52.578;8.138;2024-03-22T13:56:57;15.25;;;8.60;;
20411;SDS011;10365;52.578;8.138;2024-03-22T13:59:22;16.10;;;7.80;;
20411;SDS011;10365;52.578;8.138;2024-03-22T14:01:48;13.60;;;8.43;;
20411;SDS011;10365;52.578;8.138;2024-03-22T14:04:14;14.38;;;8.10;;
20411;SDS011;10365;52.578;8.138;2024-03-22T14:07:13;14.82;;;8.57;;
20411;SDS011;10365;52.578;8.138;2024-03-22T14:09:33;13.10;;;7.50;;
20411;SDS011;10365;52.578;8.138;2024-03-22T14:11:58;14.63;;;8.00;;
20411;SDS011;10365;52.578;8.138;2024-03-22T14:14:24;14.43;;;8.05;;